createdAt,value
2022-12-08T00:05:06.804Z,13.60
2022-12-08T00:10:48.364Z,13.80
2022-12-08T00:16:10.600Z,13.80
2022-12-08T00:21:32.575Z,10.90
2022-12-08T00:26:54.799Z,13.60
2022-12-08T00:32:17.117Z,13.00
2022-12-08T00:37:39.059Z,12.10
2022-12-08T00:43:00.690Z,13.70
2022-12-08T00:48:23.017Z,15.10
2022-12-08T00:53:45.255Z,14.70
2022-12-08T00:59:08.183Z,13.80
2022-12-08T01:04:30.413Z,14.00
2022-12-08T01:09:53.044Z,12.60
2022-12-08T01:15:15.775Z,12.90
2022-12-08T01:20:37.909Z,12.20
2022-12-08T01:26:07.700Z,11.90
2022-12-08T01:31:29.458Z,11.50
2022-12-08T01:36:51.491Z,12.00
2022-12-08T01:42:22.061Z,13.00
2022-12-08T01:47:47.783Z,14.00
2022-12-08T01:53:22.196Z,11.90
2022-12-08T01:58:48.641Z,13.10
2022-12-08T02:04:10.872Z,10.80
2022-12-08T02:09:33.104Z,11.50
2022-12-08T02:14:55.384Z,11.70
2022-12-08T02:20:31.737Z,10.80
2022-12-08T02:26:24.511Z,12.80
2022-12-08T02:32:24.315Z,11.30
2022-12-08T02:43:35.989Z,10.60
2022-12-08T02:48:59.527Z,10.10
2022-12-08T02:54:21.540Z,11.60
2022-12-08T02:59:52.705Z,12.60
2022-12-08T03:05:26.431Z,11.80
2022-12-08T03:11:09.973Z,11.70
2022-12-08T03:16:34.290Z,11.20
2022-12-08T03:22:03.451Z,12.60
2022-12-08T03:27:28.236Z,13.20
2022-12-08T03:32:56.929Z,11.60
2022-12-08T03:38:18.795Z,12.60
2022-12-08T03:43:40.614Z,10.30
2022-12-08T03:49:02.643Z,10.20
2022-12-08T03:54:24.677Z,16.00
2022-12-08T03:59:46.597Z,11.00
2022-12-08T04:05:08.833Z,11.20
2022-12-08T04:10:31.264Z,32.00
2022-12-08T04:15:53.240Z,16.90
2022-12-08T04:21:15.331Z,20.80
2022-12-08T04:26:37.356Z,21.50
2022-12-08T04:31:59.172Z,17.10
2022-12-08T04:37:21.208Z,15.00
2022-12-08T04:42:43.342Z,17.20
2022-12-08T04:48:05.705Z,17.10
2022-12-08T04:53:28.103Z,12.70
2022-12-08T04:58:50.032Z,11.10
2022-12-08T05:04:11.875Z,10.20
2022-12-08T05:09:33.891Z,10.10
2022-12-08T05:14:55.522Z,8.10
2022-12-08T05:20:17.649Z,10.20
2022-12-08T05:25:39.579Z,9.70
2022-12-08T05:31:01.622Z,12.70
2022-12-08T05:36:24.039Z,10.70
2022-12-08T05:41:45.620Z,10.60
2022-12-08T05:47:07.708Z,11.60
2022-12-08T05:52:29.828Z,13.00
2022-12-08T05:57:51.760Z,11.00
2022-12-08T06:03:14.980Z,9.90
2022-12-08T06:08:36.924Z,11.50
2022-12-08T06:14:02.201Z,10.40
2022-12-08T06:19:23.896Z,9.80
2022-12-08T06:24:46.019Z,12.00
2022-12-08T06:30:08.756Z,11.70
2022-12-08T06:35:30.961Z,11.90
2022-12-08T06:40:59.135Z,12.20
2022-12-08T06:46:21.196Z,10.90
2022-12-08T06:51:43.128Z,11.60
2022-12-08T06:57:05.428Z,10.80
2022-12-08T07:02:27.375Z,9.80
2022-12-08T07:07:49.143Z,10.30
2022-12-08T07:13:11.012Z,10.60
2022-12-08T07:18:33.349Z,12.10
2022-12-08T07:23:57.854Z,13.30
2022-12-08T07:29:25.961Z,22.60
2022-12-08T07:34:47.960Z,15.90
2022-12-08T07:40:10.592Z,20.40
2022-12-08T07:45:32.640Z,19.70
2022-12-08T07:51:01.523Z,14.60
2022-12-08T07:56:23.907Z,16.70
2022-12-08T08:01:45.796Z,14.90
2022-12-08T08:07:07.983Z,16.10
2022-12-08T08:12:31.842Z,15.90
2022-12-08T08:17:54.347Z,15.70
2022-12-08T08:23:16.368Z,19.20
2022-12-08T08:28:38.494Z,23.00
2022-12-08T08:34:05.241Z,17.00
2022-12-08T08:39:27.371Z,17.50
2022-12-08T08:44:49.098Z,18.00
2022-12-08T08:50:11.039Z,15.40
2022-12-08T08:55:33.058Z,20.80
2022-12-08T09:00:55.088Z,23.10
2022-12-08T09:06:17.336Z,15.70
2022-12-08T09:11:39.352Z,20.10
2022-12-08T09:17:01.280Z,18.80
2022-12-08T09:22:23.910Z,23.70
2022-12-08T09:27:45.792Z,17.80
2022-12-08T09:33:07.551Z,22.00
2022-12-08T09:38:29.498Z,18.80
2022-12-08T09:43:54.235Z,11.40
2022-12-08T09:49:19.320Z,18.60
2022-12-08T09:54:41.307Z,12.70
2022-12-08T10:00:06.266Z,11.90
2022-12-08T10:05:30.247Z,10.90
2022-12-08T10:10:59.229Z,11.70
2022-12-08T10:16:34.265Z,10.80
2022-12-08T10:21:57.344Z,10.00
2022-12-08T10:27:19.763Z,12.90
2022-12-08T10:32:45.319Z,11.50
2022-12-08T10:38:23.805Z,14.40
2022-12-08T10:43:51.257Z,8.70
2022-12-08T10:49:26.259Z,11.80
2022-12-08T10:54:52.597Z,11.30
2022-12-08T11:00:18.783Z,12.90
2022-12-08T11:05:42.051Z,12.90
2022-12-08T11:11:03.880Z,11.00
2022-12-08T11:16:25.831Z,14.80
2022-12-08T11:21:48.391Z,13.50
2022-12-08T11:27:10.522Z,14.80
2022-12-08T11:32:32.572Z,11.70
2022-12-08T11:38:13.475Z,21.40
2022-12-08T11:43:57.910Z,14.90
2022-12-08T11:49:20.751Z,13.20
2022-12-08T11:54:50.878Z,16.00
2022-12-08T12:00:25.570Z,11.50
2022-12-08T12:06:18.573Z,13.20
2022-12-08T12:12:16.883Z,8.40
2022-12-08T12:17:50.134Z,10.10
2022-12-08T12:23:17.485Z,10.00
2022-12-08T12:28:50.009Z,7.40
2022-12-08T12:34:18.607Z,10.50
2022-12-08T12:39:52.873Z,8.80
2022-12-08T12:45:17.419Z,7.80
2022-12-08T12:50:47.653Z,7.00
2022-12-08T12:56:12.712Z,7.50
2022-12-08T13:01:49.225Z,12.20
2022-12-08T13:07:21.932Z,10.50
2022-12-08T13:12:44.827Z,12.60
2022-12-08T13:18:08.059Z,13.70
2022-12-08T13:23:43.466Z,11.10
2022-12-08T13:29:21.788Z,10.90
2022-12-08T13:34:49.237Z,11.70
2022-12-08T13:40:28.328Z,13.80
2022-12-08T13:57:29.931Z,20.10
2022-12-08T14:08:57.019Z,12.50
2022-12-08T14:20:12.103Z,13.90
2022-12-08T14:25:35.625Z,16.30
2022-12-08T14:30:57.890Z,18.60
2022-12-08T14:36:21.144Z,22.30
2022-12-08T14:42:01.292Z,20.70
2022-12-08T14:47:23.011Z,16.80
2022-12-08T14:52:47.551Z,18.40
2022-12-08T14:58:21.108Z,16.80
2022-12-08T15:03:48.858Z,24.50
2022-12-08T15:09:35.287Z,25.80
2022-12-08T15:15:12.070Z,19.70
2022-12-08T15:20:41.430Z,27.30
2022-12-08T15:26:04.759Z,28.20
2022-12-08T15:31:26.588Z,32.20
2022-12-08T15:36:50.322Z,38.10
2022-12-08T15:42:14.939Z,58.50
2022-12-08T15:47:36.891Z,50.80
2022-12-08T15:52:59.137Z,52.60
2022-12-08T16:04:59.934Z,36.70
2022-12-08T16:09:50.053Z,50.20
2022-12-08T16:27:42.609Z,40.80
2022-12-08T16:32:19.672Z,30.10
2022-12-08T16:37:42.075Z,31.70
2022-12-08T16:43:04.161Z,28.80
2022-12-08T16:48:26.190Z,31.80
2022-12-08T16:53:47.920Z,36.80
2022-12-08T16:59:10.055Z,52.10
2022-12-08T17:04:32.484Z,56.10
2022-12-08T17:09:54.409Z,53.10
2022-12-08T17:15:19.353Z,53.30
2022-12-08T17:20:41.344Z,58.00
2022-12-08T17:26:03.941Z,42.20
2022-12-08T17:31:29.568Z,40.90
2022-12-08T17:36:52.692Z,48.60
2022-12-08T17:42:15.028Z,49.40
2022-12-08T17:47:37.348Z,47.80
2022-12-08T17:52:59.582Z,63.10
2022-12-08T17:58:23.017Z,50.30
2022-12-08T18:03:44.742Z,65.10
2022-12-08T18:09:07.948Z,56.80
2022-12-08T18:14:30.082Z,56.00
2022-12-08T18:19:52.238Z,42.50
2022-12-08T18:25:15.373Z,44.10
2022-12-08T18:30:40.100Z,47.60
2022-12-08T18:36:06.998Z,35.40
2022-12-08T18:41:28.885Z,45.20
2022-12-08T18:46:51.517Z,44.10
2022-12-08T18:52:13.547Z,35.00
2022-12-08T18:57:39.434Z,33.70
2022-12-08T19:03:01.796Z,48.20
2022-12-08T19:08:29.668Z,54.00
2022-12-08T19:13:54.209Z,56.00
2022-12-08T19:19:16.343Z,53.60
2022-12-08T19:24:38.314Z,53.00
2022-12-08T19:30:00.301Z,61.80
2022-12-08T19:35:22.171Z,68.40
2022-12-08T19:41:18.077Z,78.70
2022-12-08T19:46:40.662Z,58.00
2022-12-08T19:52:03.306Z,55.00
2022-12-08T19:57:25.169Z,52.00
2022-12-08T20:02:48.167Z,58.70
2022-12-08T20:08:10.515Z,64.40
2022-12-08T20:13:41.696Z,63.10
2022-12-08T20:19:03.991Z,62.90
2022-12-08T20:24:25.965Z,57.10
2022-12-08T20:29:48.304Z,52.70
2022-12-08T20:35:10.261Z,55.10
2022-12-08T20:40:32.147Z,69.30
2022-12-08T20:45:53.894Z,60.00
2022-12-08T20:51:18.475Z,47.10
2022-12-08T20:56:46.609Z,46.00
2022-12-08T21:02:11.154Z,34.30
2022-12-08T21:07:34.284Z,32.30
2022-12-08T21:12:56.178Z,27.40
2022-12-08T21:18:18.623Z,28.90
2022-12-08T21:23:41.759Z,36.10
2022-12-08T21:29:04.586Z,32.10
2022-12-08T21:34:31.767Z,29.10
2022-12-08T21:39:53.851Z,34.10
2022-12-08T21:45:18.445Z,36.80
2022-12-08T21:50:40.509Z,31.10
2022-12-08T21:56:02.739Z,25.90
2022-12-08T22:01:24.812Z,29.90
2022-12-08T22:06:47.749Z,35.00
2022-12-08T22:12:12.222Z,33.30
2022-12-08T22:17:39.812Z,32.10
2022-12-08T22:23:02.303Z,28.60
2022-12-08T22:28:25.694Z,38.80
2022-12-08T22:33:48.939Z,37.00
2022-12-08T22:39:11.017Z,36.40
2022-12-08T22:44:33.048Z,39.00
2022-12-08T22:49:54.876Z,42.40
2022-12-08T22:55:17.146Z,37.80
2022-12-08T23:00:39.680Z,44.50
2022-12-08T23:06:02.264Z,41.10
2022-12-08T23:11:29.278Z,45.20
2022-12-08T23:16:51.286Z,40.30
2022-12-08T23:22:13.081Z,37.30
2022-12-08T23:27:36.074Z,36.30
2022-12-08T23:32:58.360Z,33.00
2022-12-08T23:38:20.084Z,31.60
2022-12-08T23:43:50.296Z,32.70
2022-12-08T23:49:12.425Z,35.40
2022-12-08T23:54:34.238Z,31.40
2022-12-08T23:59:56.230Z,30.70
